KAFN

Jaffrey-Silver Ranch Airport

Jaffrey, New Hampshire, USA
METAR KAFN 231052Z AUTO VRB05KT 2SM BR OVC002 M02/M02 A2992 RMK AO2 SLP151 I1001 T10221022
Observed Flight Rules
Jan-23 @ 10:52 UTC (56 minutes ago) Instrument Flight Rules
Wind Visibility Clouds Conditions
Variable at 5 knots 2 miles
  • Overcast at 200' AGL
  • Mist
Temperatures Readings
Current -2°C / 28°F
Dewpoint -2°C / 28°F
Humidity 100%
Altimeter 29.92" Hg
Pressure 1015.1 hPa
Elevation 313
METAR KAFN 231052Z AUTO VRB05KT 2SM BR OVC002 M02/M02 A2992 RMK AO2 SLP151 I1001 T10221022
Observed Flight Rules
Jan-23 @ 10:52 UTC
(56 minutes ago)
LIFR
Wind Visibility
Variable at 5 knots 2 miles
Clouds
  • Overcast at 200' AGL
Conditions
  • Mist
Temperature Dewpoint
-2°C / 28°F -2°C / 28°F
Humidity Altimeter Pressure
100% 29.92" Hg 1015.1 hPa